sensor_id;sensor_type;location;lat;lon;timestamp;temperature;humidity
38359;DHT22;42072;48.044;14.416;2024-03-08T00:00:10;3.10;99.90
38359;DHT22;42072;48.044;14.416;2024-03-08T00:02:42;3.00;99.90
38359;DHT22;42072;48.044;14.416;2024-03-08T00:05:09;2.90;99.90
38359;DHT22;42072;48.044;14.416;2024-03-08T00:07:37;2.80;99.90
38359;DHT22;42072;48.044;14.416;2024-03-08T00:10:05;2.80;99.90
38359;DHT22;42072;48.044;14.416;2024-03-08T00:12:33;2.70;99.90
38359;DHT22;42072;48.044;14.416;2024-03-08T00:15:00;2.60;99.90
38359;DHT22;42072;48.044;14.416;2024-03-08T00:17:27;2.60;99.90
38359;DHT22;42072;48.044;14.416;2024-03-08T00:19:54;2.60;99.90
38359;DHT22;42072;48.044;14.416;2024-03-08T00:22:22;2.50;99.90
38359;DHT22;42072;48.044;14.416;2024-03-08T00:24:49;2.50;99.90
38359;DHT22;42072;48.044;14.416;2024-03-08T00:27:17;2.40;99.90
38359;DHT22;42072;48.044;14.416;2024-03-08T00:29:48;2.40;99.90
38359;DHT22;42072;48.044;14.416;2024-03-08T00:32:15;2.40;99.90
38359;DHT22;42072;48.044;14.416;2024-03-08T00:34:43;2.30;99.90
38359;DHT22;42072;48.044;14.416;2024-03-08T00:37:11;2.30;99.90
38359;DHT22;42072;48.044;14.416;2024-03-08T00:39:38;2.30;99.90
38359;DHT22;42072;48.044;14.416;2024-03-08T00:42:05;2.20;99.90
38359;DHT22;42072;48.044;14.416;2024-03-08T00:44:32;2.20;99.90
38359;DHT22;42072;48.044;14.416;2024-03-08T00:46:59;2.20;99.90
38359;DHT22;42072;48.044;14.416;2024-03-08T00:49:26;2.10;99.90
38359;DHT22;42072;48.044;14.416;2024-03-08T00:51:54;2.10;99.90
38359;DHT22;42072;48.044;14.416;2024-03-08T00:54:21;2.20;99.90
38359;DHT22;42072;48.044;14.416;2024-03-08T00:56:48;2.10;99.90
38359;DHT22;42072;48.044;14.416;2024-03-08T00:59:15;2.00;99.90
38359;DHT22;42072;48.044;14.416;2024-03-08T01:01:42;2.00;99.90
38359;DHT22;42072;48.044;14.416;2024-03-08T01:04:10;2.00;99.90
38359;DHT22;42072;48.044;14.416;2024-03-08T01:06:38;1.90;99.90
38359;DHT22;42072;48.044;14.416;2024-03-08T01:09:05;1.90;99.90
38359;DHT22;42072;48.044;14.416;2024-03-08T01:11:34;1.90;99.90
38359;DHT22;42072;48.044;14.416;2024-03-08T01:14:01;1.90;99.90
38359;DHT22;42072;48.044;14.416;2024-03-08T01:16:28;1.80;99.90
38359;DHT22;42072;48.044;14.416;2024-03-08T01:18:55;1.80;99.90
38359;DHT22;42072;48.044;14.416;2024-03-08T01:21:23;1.80;99.90
38359;DHT22;42072;48.044;14.416;2024-03-08T01:23:50;1.80;99.90
38359;DHT22;42072;48.044;14.416;2024-03-08T01:26:17;1.80;99.90
38359;DHT22;42072;48.044;14.416;2024-03-08T01:28:44;1.80;99.90
38359;DHT22;42072;48.044;14.416;2024-03-08T01:31:11;1.70;99.90
38359;DHT22;42072;48.044;14.416;2024-03-08T01:33:39;1.70;1.00
38359;DHT22;42072;48.044;14.416;2024-03-08T01:36:07;1.60;1.00
38359;DHT22;42072;48.044;14.416;2024-03-08T01:38:34;1.60;1.00
38359;DHT22;42072;48.044;14.416;2024-03-08T01:41:02;1.60;1.00
38359;DHT22;42072;48.044;14.416;2024-03-08T01:43:30;1.70;1.00
38359;DHT22;42072;48.044;14.416;2024-03-08T01:45:58;1.70;1.00
38359;DHT22;42072;48.044;14.416;2024-03-08T01:48:26;1.70;1.00
38359;DHT22;42072;48.044;14.416;2024-03-08T01:50:55;1.70;1.00
38359;DHT22;42072;48.044;14.416;2024-03-08T01:53:26;1.70;1.00
38359;DHT22;42072;48.044;14.416;2024-03-08T01:55:54;1.70;99.90
38359;DHT22;42072;48.044;14.416;2024-03-08T01:58:22;1.70;99.90
38359;DHT22;42072;48.044;14.416;2024-03-08T02:00:50;1.70;99.90
38359;DHT22;42072;48.044;14.416;2024-03-08T02:03:17;1.60;99.90
38359;DHT22;42072;48.044;14.416;2024-03-08T02:05:44;1.50;1.00
38359;DHT22;42072;48.044;14.416;2024-03-08T02:08:11;1.50;1.00
38359;DHT22;42072;48.044;14.416;2024-03-08T02:10:41;1.50;1.00
38359;DHT22;42072;48.044;14.416;2024-03-08T02:13:09;1.50;1.00
38359;DHT22;42072;48.044;14.416;2024-03-08T02:18:22;1.60;1.00
38359;DHT22;42072;48.044;14.416;2024-03-08T02:23:21;1.50;1.00
38359;DHT22;42072;48.044;14.416;2024-03-08T02:25:48;1.60;1.00
38359;DHT22;42072;48.044;14.416;2024-03-08T02:28:16;1.50;1.00
38359;DHT22;42072;48.044;14.416;2024-03-08T02:30:48;1.50;1.00
38359;DHT22;42072;48.044;14.416;2024-03-08T02:33:18;1.40;1.00
38359;DHT22;42072;48.044;14.416;2024-03-08T02:35:45;1.40;1.00
38359;DHT22;42072;48.044;14.416;2024-03-08T02:38:17;1.40;1.00
38359;DHT22;42072;48.044;14.416;2024-03-08T02:40:45;1.40;1.00
38359;DHT22;42072;48.044;14.416;2024-03-08T02:43:13;1.40;1.00
38359;DHT22;42072;48.044;14.416;2024-03-08T02:45:41;1.40;1.00
38359;DHT22;42072;48.044;14.416;2024-03-08T02:48:09;1.40;1.00
38359;DHT22;42072;48.044;14.416;2024-03-08T02:50:37;1.40;1.00
38359;DHT22;42072;48.044;14.416;2024-03-08T02:53:04;1.50;1.00
38359;DHT22;42072;48.044;14.416;2024-03-08T02:55:31;1.40;1.00
38359;DHT22;42072;48.044;14.416;2024-03-08T02:57:58;1.40;1.00
38359;DHT22;42072;48.044;14.416;2024-03-08T03:00:26;1.40;1.00
38359;DHT22;42072;48.044;14.416;2024-03-08T03:02:53;1.40;1.00
38359;DHT22;42072;48.044;14.416;2024-03-08T03:05:21;1.40;1.00
38359;DHT22;42072;48.044;14.416;2024-03-08T03:07:48;1.50;1.00
38359;DHT22;42072;48.044;14.416;2024-03-08T03:10:18;1.50;1.00
38359;DHT22;42072;48.044;14.416;2024-03-08T03:12:46;1.50;1.00
38359;DHT22;42072;48.044;14.416;2024-03-08T03:15:13;1.50;1.00
38359;DHT22;42072;48.044;14.416;2024-03-08T03:17:40;1.50;1.00
38359;DHT22;42072;48.044;14.416;2024-03-08T03:20:08;1.50;1.00
38359;DHT22;42072;48.044;14.416;2024-03-08T03:22:40;1.40;1.00
38359;DHT22;42072;48.044;14.416;2024-03-08T03:25:08;1.40;1.00
38359;DHT22;42072;48.044;14.416;2024-03-08T03:27:39;1.40;1.00
38359;DHT22;42072;48.044;14.416;2024-03-08T03:30:07;1.40;1.00
38359;DHT22;42072;48.044;14.416;2024-03-08T03:32:48;1.40;1.00
38359;DHT22;42072;48.044;14.416;2024-03-08T03:35:20;1.40;1.00
38359;DHT22;42072;48.044;14.416;2024-03-08T03:37:50;1.30;1.00
38359;DHT22;42072;48.044;14.416;2024-03-08T03:40:36;1.30;1.00
38359;DHT22;42072;48.044;14.416;2024-03-08T03:43:04;1.20;1.00
38359;DHT22;42072;48.044;14.416;2024-03-08T03:45:31;1.30;1.00
38359;DHT22;42072;48.044;14.416;2024-03-08T03:48:04;1.30;1.00
38359;DHT22;42072;48.044;14.416;2024-03-08T03:50:34;1.40;1.00
38359;DHT22;42072;48.044;14.416;2024-03-08T03:53:03;1.40;1.00
38359;DHT22;42072;48.044;14.416;2024-03-08T03:55:30;1.40;1.00
38359;DHT22;42072;48.044;14.416;2024-03-08T03:57:57;1.40;1.00
38359;DHT22;42072;48.044;14.416;2024-03-08T04:00:26;1.30;1.00
38359;DHT22;42072;48.044;14.416;2024-03-08T04:02:54;1.30;1.00
38359;DHT22;42072;48.044;14.416;2024-03-08T04:05:23;1.30;1.00
38359;DHT22;42072;48.044;14.416;2024-03-08T04:07:50;1.30;1.00
38359;DHT22;42072;48.044;14.416;2024-03-08T04:10:17;1.30;1.00
38359;DHT22;42072;48.044;14.416;2024-03-08T04:12:45;1.40;1.00
38359;DHT22;42072;48.044;14.416;2024-03-08T04:15:12;1.40;1.00
38359;DHT22;42072;48.044;14.416;2024-03-08T04:17:39;1.30;1.00
38359;DHT22;42072;48.044;14.416;2024-03-08T04:20:06;1.20;1.00
38359;DHT22;42072;48.044;14.416;2024-03-08T04:22:37;1.10;1.00
38359;DHT22;42072;48.044;14.416;2024-03-08T04:25:06;1.10;1.00
38359;DHT22;42072;48.044;14.416;2024-03-08T04:27:33;1.10;1.00
38359;DHT22;42072;48.044;14.416;2024-03-08T04:30:02;1.20;1.00
38359;DHT22;42072;48.044;14.416;2024-03-08T04:32:29;1.20;1.00
38359;DHT22;42072;48.044;14.416;2024-03-08T04:34:57;1.20;1.00
38359;DHT22;42072;48.044;14.416;2024-03-08T04:37:24;1.20;1.00
38359;DHT22;42072;48.044;14.416;2024-03-08T04:39:52;1.30;1.00
38359;DHT22;42072;48.044;14.416;2024-03-08T04:42:19;1.40;1.00
38359;DHT22;42072;48.044;14.416;2024-03-08T04:44:46;1.50;1.00
38359;DHT22;42072;48.044;14.416;2024-03-08T04:47:14;1.60;1.00
38359;DHT22;42072;48.044;14.416;2024-03-08T04:49:41;1.60;1.00
38359;DHT22;42072;48.044;14.416;2024-03-08T04:52:08;1.60;1.00
38359;DHT22;42072;48.044;14.416;2024-03-08T04:54:35;1.60;1.00
38359;DHT22;42072;48.044;14.416;2024-03-08T04:57:02;1.70;1.00
38359;DHT22;42072;48.044;14.416;2024-03-08T04:59:33;1.70;1.00
38359;DHT22;42072;48.044;14.416;2024-03-08T05:02:00;1.70;1.00
38359;DHT22;42072;48.044;14.416;2024-03-08T05:04:27;1.70;1.00
38359;DHT22;42072;48.044;14.416;2024-03-08T05:06:56;1.70;1.00
38359;DHT22;42072;48.044;14.416;2024-03-08T05:09:23;1.80;1.00
38359;DHT22;42072;48.044;14.416;2024-03-08T05:11:50;1.80;1.00
38359;DHT22;42072;48.044;14.416;2024-03-08T05:14:17;1.80;1.00
38359;DHT22;42072;48.044;14.416;2024-03-08T05:16:47;1.80;1.00
38359;DHT22;42072;48.044;14.416;2024-03-08T05:19:18;1.80;1.00
38359;DHT22;42072;48.044;14.416;2024-03-08T05:21:45;1.80;1.00
38359;DHT22;42072;48.044;14.416;2024-03-08T05:24:13;1.80;1.00
38359;DHT22;42072;48.044;14.416;2024-03-08T05:26:41;1.70;1.00
38359;DHT22;42072;48.044;14.416;2024-03-08T05:29:09;1.70;1.00
38359;DHT22;42072;48.044;14.416;2024-03-08T05:34:09;1.70;1.00
38359;DHT22;42072;48.044;14.416;2024-03-08T05:36:37;1.70;1.00
38359;DHT22;42072;48.044;14.416;2024-03-08T05:39:04;1.70;1.00
38359;DHT22;42072;48.044;14.416;2024-03-08T05:41:33;1.70;1.00
38359;DHT22;42072;48.044;14.416;2024-03-08T05:44:01;1.60;1.00
38359;DHT22;42072;48.044;14.416;2024-03-08T05:46:28;1.60;1.00
38359;DHT22;42072;48.044;14.416;2024-03-08T05:48:55;1.60;1.00
38359;DHT22;42072;48.044;14.416;2024-03-08T05:51:25;1.60;1.00
38359;DHT22;42072;48.044;14.416;2024-03-08T05:53:54;1.60;1.00
38359;DHT22;42072;48.044;14.416;2024-03-08T05:56:23;1.60;1.00
38359;DHT22;42072;48.044;14.416;2024-03-08T05:58:51;1.60;1.00
38359;DHT22;42072;48.044;14.416;2024-03-08T06:01:18;1.60;1.00
38359;DHT22;42072;48.044;14.416;2024-03-08T06:03:45;1.50;1.00
38359;DHT22;42072;48.044;14.416;2024-03-08T06:06:13;1.60;1.00
38359;DHT22;42072;48.044;14.416;2024-03-08T06:08:42;1.50;1.00
38359;DHT22;42072;48.044;14.416;2024-03-08T06:11:10;1.50;1.00
38359;DHT22;42072;48.044;14.416;2024-03-08T06:13:37;1.50;1.00
38359;DHT22;42072;48.044;14.416;2024-03-08T06:16:05;1.50;1.00
38359;DHT22;42072;48.044;14.416;2024-03-08T06:18:35;1.50;1.00
38359;DHT22;42072;48.044;14.416;2024-03-08T06:21:04;1.50;1.00
38359;DHT22;42072;48.044;14.416;2024-03-08T06:23:36;1.50;1.00
38359;DHT22;42072;48.044;14.416;2024-03-08T06:26:05;1.50;1.00
38359;DHT22;42072;48.044;14.416;2024-03-08T06:28:32;1.50;1.00
38359;DHT22;42072;48.044;14.416;2024-03-08T06:30:59;1.50;1.00
38359;DHT22;42072;48.044;14.416;2024-03-08T06:33:27;1.40;1.00
38359;DHT22;42072;48.044;14.416;2024-03-08T06:35:55;1.50;1.00
38359;DHT22;42072;48.044;14.416;2024-03-08T06:38:25;1.50;1.00
38359;DHT22;42072;48.044;14.416;2024-03-08T06:40:52;1.50;1.00
38359;DHT22;42072;48.044;14.416;2024-03-08T06:43:21;1.50;1.00
38359;DHT22;42072;48.044;14.416;2024-03-08T06:45:48;1.60;1.00
38359;DHT22;42072;48.044;14.416;2024-03-08T06:48:16;1.60;99.90
38359;DHT22;42072;48.044;14.416;2024-03-08T06:50:44;1.70;99.90
38359;DHT22;42072;48.044;14.416;2024-03-08T06:53:15;1.80;99.90
38359;DHT22;42072;48.044;14.416;2024-03-08T06:55:49;1.90;99.90
38359;DHT22;42072;48.044;14.416;2024-03-08T06:58:17;1.90;99.90
38359;DHT22;42072;48.044;14.416;2024-03-08T07:00:44;2.10;99.90
38359;DHT22;42072;48.044;14.416;2024-03-08T07:03:11;2.20;99.90
38359;DHT22;42072;48.044;14.416;2024-03-08T07:05:43;2.30;99.90
38359;DHT22;42072;48.044;14.416;2024-03-08T07:08:11;2.40;99.90
38359;DHT22;42072;48.044;14.416;2024-03-08T07:10:40;2.50;99.90
38359;DHT22;42072;48.044;14.416;2024-03-08T07:13:12;2.60;99.90
38359;DHT22;42072;48.044;14.416;2024-03-08T07:15:39;2.70;99.90
38359;DHT22;42072;48.044;14.416;2024-03-08T07:18:06;2.80;99.90
38359;DHT22;42072;48.044;14.416;2024-03-08T07:20:36;2.80;99.90
38359;DHT22;42072;48.044;14.416;2024-03-08T07:23:04;2.80;99.90
38359;DHT22;42072;48.044;14.416;2024-03-08T07:25:31;2.90;99.90
38359;DHT22;42072;48.044;14.416;2024-03-08T07:27:59;3.10;99.90
38359;DHT22;42072;48.044;14.416;2024-03-08T07:30:28;3.30;99.90
38359;DHT22;42072;48.044;14.416;2024-03-08T07:33:11;3.10;70.70
38359;DHT22;42072;48.044;14.416;2024-03-08T07:35:40;3.10;91.50
38359;DHT22;42072;48.044;14.416;2024-03-08T07:38:08;3.10;86.90
38359;DHT22;42072;48.044;14.416;2024-03-08T07:40:38;3.10;89.50
38359;DHT22;42072;48.044;14.416;2024-03-08T07:43:11;3.30;91.80
38359;DHT22;42072;48.044;14.416;2024-03-08T07:45:42;3.10;85.20
38359;DHT22;42072;48.044;14.416;2024-03-08T07:48:13;3.00;70.60
38359;DHT22;42072;48.044;14.416;2024-03-08T07:50:45;3.10;92.20
38359;DHT22;42072;48.044;14.416;2024-03-08T07:53:14;3.10;92.90
38359;DHT22;42072;48.044;14.416;2024-03-08T07:55:41;3.30;81.70
38359;DHT22;42072;48.044;14.416;2024-03-08T07:58:11;3.40;50.60
38359;DHT22;42072;48.044;14.416;2024-03-08T08:00:38;3.90;53.60
38359;DHT22;42072;48.044;14.416;2024-03-08T08:03:05;4.20;1.00
38359;DHT22;42072;48.044;14.416;2024-03-08T08:05:35;4.40;1.00
38359;DHT22;42072;48.044;14.416;2024-03-08T08:08:02;4.40;1.00
38359;DHT22;42072;48.044;14.416;2024-03-08T08:10:33;4.40;1.00
38359;DHT22;42072;48.044;14.416;2024-03-08T08:13:00;4.50;1.00
38359;DHT22;42072;48.044;14.416;2024-03-08T08:15:29;4.60;1.00
38359;DHT22;42072;48.044;14.416;2024-03-08T08:17:56;4.70;1.00
38359;DHT22;42072;48.044;14.416;2024-03-08T08:20:23;4.80;1.00
38359;DHT22;42072;48.044;14.416;2024-03-08T08:22:50;4.80;1.00
38359;DHT22;42072;48.044;14.416;2024-03-08T08:25:17;4.90;1.00
38359;DHT22;42072;48.044;14.416;2024-03-08T08:27:47;5.00;1.00
38359;DHT22;42072;48.044;14.416;2024-03-08T08:30:14;5.00;1.00
38359;DHT22;42072;48.044;14.416;2024-03-08T08:32:41;4.90;1.00
38359;DHT22;42072;48.044;14.416;2024-03-08T08:35:11;5.00;1.00
38359;DHT22;42072;48.044;14.416;2024-03-08T08:37:39;4.70;1.00
38359;DHT22;42072;48.044;14.416;2024-03-08T08:40:07;4.70;1.00
38359;DHT22;42072;48.044;14.416;2024-03-08T08:42:42;4.60;1.00
38359;DHT22;42072;48.044;14.416;2024-03-08T08:45:10;4.90;1.00
38359;DHT22;42072;48.044;14.416;2024-03-08T08:47:43;5.00;1.00
38359;DHT22;42072;48.044;14.416;2024-03-08T08:50:12;5.20;1.00
38359;DHT22;42072;48.044;14.416;2024-03-08T08:52:40;5.20;1.00
38359;DHT22;42072;48.044;14.416;2024-03-08T08:55:07;5.00;1.00
38359;DHT22;42072;48.044;14.416;2024-03-08T08:57:34;4.80;1.00
38359;DHT22;42072;48.044;14.416;2024-03-08T09:00:03;4.90;1.00
38359;DHT22;42072;48.044;14.416;2024-03-08T09:02:34;4.80;1.00
38359;DHT22;42072;48.044;14.416;2024-03-08T09:05:02;4.70;1.00
38359;DHT22;42072;48.044;14.416;2024-03-08T09:07:29;4.70;1.00
38359;DHT22;42072;48.044;14.416;2024-03-08T09:09:57;4.70;1.00
38359;DHT22;42072;48.044;14.416;2024-03-08T09:12:26;4.90;1.00
38359;DHT22;42072;48.044;14.416;2024-03-08T09:14:53;5.00;1.00
38359;DHT22;42072;48.044;14.416;2024-03-08T09:17:20;5.00;1.00
38359;DHT22;42072;48.044;14.416;2024-03-08T09:19:47;5.10;1.00
38359;DHT22;42072;48.044;14.416;2024-03-08T09:22:15;5.00;1.00
38359;DHT22;42072;48.044;14.416;2024-03-08T09:24:42;5.10;1.00
38359;DHT22;42072;48.044;14.416;2024-03-08T09:27:12;4.90;1.00
38359;DHT22;42072;48.044;14.416;2024-03-08T09:29:40;5.10;1.00
38359;DHT22;42072;48.044;14.416;2024-03-08T09:32:07;5.30;1.00
38359;DHT22;42072;48.044;14.416;2024-03-08T09:34:34;5.30;1.00
38359;DHT22;42072;48.044;14.416;2024-03-08T09:37:04;5.30;1.00
38359;DHT22;42072;48.044;14.416;2024-03-08T09:39:31;5.30;1.00
38359;DHT22;42072;48.044;14.416;2024-03-08T09:42:01;5.50;1.00
38359;DHT22;42072;48.044;14.416;2024-03-08T09:44:28;5.70;1.00
38359;DHT22;42072;48.044;14.416;2024-03-08T09:46:58;5.80;1.00
38359;DHT22;42072;48.044;14.416;2024-03-08T09:49:26;5.60;1.00
38359;DHT22;42072;48.044;14.416;2024-03-08T09:51:53;5.60;1.00
38359;DHT22;42072;48.044;14.416;2024-03-08T09:54:22;5.60;1.00
38359;DHT22;42072;48.044;14.416;2024-03-08T09:56:52;5.70;1.00
38359;DHT22;42072;48.044;14.416;2024-03-08T09:59:20;6.00;1.00
38359;DHT22;42072;48.044;14.416;2024-03-08T10:01:49;6.10;1.00
38359;DHT22;42072;48.044;14.416;2024-03-08T10:04:18;6.30;1.00
38359;DHT22;42072;48.044;14.416;2024-03-08T10:06:46;6.40;1.00
38359;DHT22;42072;48.044;14.416;2024-03-08T10:09:14;6.70;1.00
38359;DHT22;42072;48.044;14.416;2024-03-08T10:11:42;6.80;1.00
38359;DHT22;42072;48.044;14.416;2024-03-08T10:14:10;6.70;1.00
38359;DHT22;42072;48.044;14.416;2024-03-08T10:16:38;6.70;1.00
38359;DHT22;42072;48.044;14.416;2024-03-08T10:19:06;6.60;99.90
38359;DHT22;42072;48.044;14.416;2024-03-08T10:21:34;6.70;99.90
38359;DHT22;42072;48.044;14.416;2024-03-08T10:24:05;6.90;99.90
38359;DHT22;42072;48.044;14.416;2024-03-08T10:26:32;6.90;99.90
38359;DHT22;42072;48.044;14.416;2024-03-08T10:28:59;6.80;99.90
38359;DHT22;42072;48.044;14.416;2024-03-08T10:31:26;6.60;1.00
38359;DHT22;42072;48.044;14.416;2024-03-08T10:33:53;6.60;1.00
38359;DHT22;42072;48.044;14.416;2024-03-08T10:36:21;6.70;1.00
38359;DHT22;42072;48.044;14.416;2024-03-08T10:38:50;6.60;1.00
38359;DHT22;42072;48.044;14.416;2024-03-08T10:41:19;6.70;1.00
38359;DHT22;42072;48.044;14.416;2024-03-08T10:49:12;7.00;1.00
38359;DHT22;42072;48.044;14.416;2024-03-08T10:51:42;7.20;1.00
38359;DHT22;42072;48.044;14.416;2024-03-08T10:54:09;7.40;99.90
38359;DHT22;42072;48.044;14.416;2024-03-08T10:56:37;7.40;99.90
38359;DHT22;42072;48.044;14.416;2024-03-08T10:59:08;7.20;99.90
38359;DHT22;42072;48.044;14.416;2024-03-08T11:01:35;7.20;99.90
38359;DHT22;42072;48.044;14.416;2024-03-08T11:04:06;7.50;99.90
38359;DHT22;42072;48.044;14.416;2024-03-08T11:11:49;7.70;99.90
38359;DHT22;42072;48.044;14.416;2024-03-08T11:14:42;7.80;99.90
38359;DHT22;42072;48.044;14.416;2024-03-08T11:17:03;8.00;99.90
38359;DHT22;42072;48.044;14.416;2024-03-08T11:19:33;8.00;99.90
38359;DHT22;42072;48.044;14.416;2024-03-08T11:22:01;8.10;99.90
38359;DHT22;42072;48.044;14.416;2024-03-08T11:24:38;7.90;99.90
38359;DHT22;42072;48.044;14.416;2024-03-08T11:27:08;7.80;99.90
38359;DHT22;42072;48.044;14.416;2024-03-08T11:29:37;8.00;99.90
38359;DHT22;42072;48.044;14.416;2024-03-08T11:32:07;8.00;99.90
38359;DHT22;42072;48.044;14.416;2024-03-08T11:34:39;8.10;99.90
38359;DHT22;42072;48.044;14.416;2024-03-08T11:37:13;8.40;99.90
38359;DHT22;42072;48.044;14.416;2024-03-08T11:39:49;8.40;99.90
38359;DHT22;42072;48.044;14.416;2024-03-08T11:42:17;8.00;99.90
38359;DHT22;42072;48.044;14.416;2024-03-08T11:44:44;8.00;99.90
38359;DHT22;42072;48.044;14.416;2024-03-08T11:47:11;8.10;99.90
38359;DHT22;42072;48.044;14.416;2024-03-08T11:49:39;8.30;99.90
38359;DHT22;42072;48.044;14.416;2024-03-08T11:52:12;8.30;99.90
38359;DHT22;42072;48.044;14.416;2024-03-08T11:54:40;8.40;99.90
38359;DHT22;42072;48.044;14.416;2024-03-08T11:57:08;8.60;99.90
38359;DHT22;42072;48.044;14.416;2024-03-08T11:59:36;8.40;99.90
38359;DHT22;42072;48.044;14.416;2024-03-08T12:02:06;8.50;99.90
38359;DHT22;42072;48.044;14.416;2024-03-08T12:04:34;8.60;99.90
38359;DHT22;42072;48.044;14.416;2024-03-08T12:07:03;8.70;99.90
38359;DHT22;42072;48.044;14.416;2024-03-08T12:09:35;8.80;99.90
38359;DHT22;42072;48.044;14.416;2024-03-08T12:12:03;8.90;99.90
38359;DHT22;42072;48.044;14.416;2024-03-08T12:14:34;8.80;99.90
38359;DHT22;42072;48.044;14.416;2024-03-08T12:17:01;8.70;99.90
38359;DHT22;42072;48.044;14.416;2024-03-08T12:19:29;8.70;99.90
38359;DHT22;42072;48.044;14.416;2024-03-08T12:21:56;8.80;99.90
38359;DHT22;42072;48.044;14.416;2024-03-08T12:24:23;8.90;99.90
38359;DHT22;42072;48.044;14.416;2024-03-08T12:26:50;9.00;99.90
38359;DHT22;42072;48.044;14.416;2024-03-08T12:29:19;8.90;99.90
38359;DHT22;42072;48.044;14.416;2024-03-08T12:31:55;9.00;99.90
38359;DHT22;42072;48.044;14.416;2024-03-08T12:34:25;9.10;99.90
38359;DHT22;42072;48.044;14.416;2024-03-08T12:36:54;9.20;99.90
38359;DHT22;42072;48.044;14.416;2024-03-08T12:39:22;9.10;99.90
38359;DHT22;42072;48.044;14.416;2024-03-08T12:41:49;9.30;99.90
38359;DHT22;42072;48.044;14.416;2024-03-08T12:44:20;9.30;99.90
38359;DHT22;42072;48.044;14.416;2024-03-08T12:46:48;9.40;99.90
38359;DHT22;42072;48.044;14.416;2024-03-08T12:49:19;9.40;99.90
38359;DHT22;42072;48.044;14.416;2024-03-08T12:51:49;9.40;99.90
38359;DHT22;42072;48.044;14.416;2024-03-08T12:54:16;9.50;99.90
38359;DHT22;42072;48.044;14.416;2024-03-08T12:56:43;9.80;99.90
38359;DHT22;42072;48.044;14.416;2024-03-08T12:59:10;9.70;99.90
38359;DHT22;42072;48.044;14.416;2024-03-08T13:01:39;9.70;99.90
38359;DHT22;42072;48.044;14.416;2024-03-08T13:04:06;9.60;99.90
38359;DHT22;42072;48.044;14.416;2024-03-08T13:06:38;9.40;99.90
38359;DHT22;42072;48.044;14.416;2024-03-08T13:09:05;9.30;99.90
38359;DHT22;42072;48.044;14.416;2024-03-08T13:11:32;9.30;99.90
38359;DHT22;42072;48.044;14.416;2024-03-08T13:14:04;9.50;99.90
38359;DHT22;42072;48.044;14.416;2024-03-08T13:16:49;9.50;99.90
38359;DHT22;42072;48.044;14.416;2024-03-08T13:19:18;9.50;99.90
38359;DHT22;42072;48.044;14.416;2024-03-08T13:21:48;9.70;99.90
38359;DHT22;42072;48.044;14.416;2024-03-08T13:24:16;9.60;99.90
38359;DHT22;42072;48.044;14.416;2024-03-08T13:27:03;9.50;99.90
38359;DHT22;42072;48.044;14.416;2024-03-08T13:29:43;9.60;99.90
38359;DHT22;42072;48.044;14.416;2024-03-08T13:32:10;9.70;99.90
38359;DHT22;42072;48.044;14.416;2024-03-08T13:34:42;9.80;99.90
38359;DHT22;42072;48.044;14.416;2024-03-08T13:37:09;9.80;99.90
38359;DHT22;42072;48.044;14.416;2024-03-08T13:39:55;9.90;99.90
38359;DHT22;42072;48.044;14.416;2024-03-08T13:42:22;9.90;99.90
38359;DHT22;42072;48.044;14.416;2024-03-08T13:44:49;9.70;99.90
38359;DHT22;42072;48.044;14.416;2024-03-08T13:47:35;9.80;99.90
38359;DHT22;42072;48.044;14.416;2024-03-08T13:50:03;9.70;99.90
38359;DHT22;42072;48.044;14.416;2024-03-08T13:52:48;9.80;99.90
38359;DHT22;42072;48.044;14.416;2024-03-08T13:55:20;9.80;99.90
38359;DHT22;42072;48.044;14.416;2024-03-08T13:57:48;9.90;99.90
38359;DHT22;42072;48.044;14.416;2024-03-08T14:00:17;10.00;99.90
38359;DHT22;42072;48.044;14.416;2024-03-08T14:02:44;10.00;99.90
38359;DHT22;42072;48.044;14.416;2024-03-08T14:05:11;9.90;99.90
38359;DHT22;42072;48.044;14.416;2024-03-08T14:07:40;9.80;99.90
38359;DHT22;42072;48.044;14.416;2024-03-08T14:10:07;9.90;99.90
38359;DHT22;42072;48.044;14.416;2024-03-08T14:12:36;9.90;99.90
38359;DHT22;42072;48.044;14.416;2024-03-08T14:15:22;10.00;99.90
38359;DHT22;42072;48.044;14.416;2024-03-08T14:17:52;9.90;99.90
38359;DHT22;42072;48.044;14.416;2024-03-08T14:20:19;9.80;99.90
38359;DHT22;42072;48.044;14.416;2024-03-08T14:22:46;9.80;99.90
38359;DHT22;42072;48.044;14.416;2024-03-08T14:25:30;9.70;99.90
38359;DHT22;42072;48.044;14.416;2024-03-08T14:27:57;9.70;99.90
38359;DHT22;42072;48.044;14.416;2024-03-08T14:30:28;9.60;99.90
38359;DHT22;42072;48.044;14.416;2024-03-08T14:33:02;9.60;99.90
38359;DHT22;42072;48.044;14.416;2024-03-08T14:35:30;9.60;99.90
38359;DHT22;42072;48.044;14.416;2024-03-08T14:37:57;9.60;99.90
38359;DHT22;42072;48.044;14.416;2024-03-08T14:40:25;9.80;99.90
38359;DHT22;42072;48.044;14.416;2024-03-08T14:42:53;9.70;99.90
38359;DHT22;42072;48.044;14.416;2024-03-08T14:45:20;9.60;99.90
38359;DHT22;42072;48.044;14.416;2024-03-08T14:48:04;9.70;99.90
38359;DHT22;42072;48.044;14.416;2024-03-08T14:50:32;9.70;99.90
38359;DHT22;42072;48.044;14.416;2024-03-08T14:53:16;9.70;99.90
38359;DHT22;42072;48.044;14.416;2024-03-08T14:55:45;9.60;99.90
38359;DHT22;42072;48.044;14.416;2024-03-08T14:58:14;9.60;99.90
38359;DHT22;42072;48.044;14.416;2024-03-08T15:00:42;9.60;99.90
38359;DHT22;42072;48.044;14.416;2024-03-08T15:03:27;9.60;99.90
38359;DHT22;42072;48.044;14.416;2024-03-08T15:05:55;9.60;99.90
38359;DHT22;42072;48.044;14.416;2024-03-08T15:08:40;9.60;99.90
38359;DHT22;42072;48.044;14.416;2024-03-08T15:11:07;9.60;99.90
38359;DHT22;42072;48.044;14.416;2024-03-08T15:13:35;9.60;99.90
38359;DHT22;42072;48.044;14.416;2024-03-08T15:16:07;9.60;99.90
38359;DHT22;42072;48.044;14.416;2024-03-08T15:18:35;9.70;99.90
38359;DHT22;42072;48.044;14.416;2024-03-08T15:26:17;9.70;99.90
38359;DHT22;42072;48.044;14.416;2024-03-08T15:28:45;9.70;99.90
38359;DHT22;42072;48.044;14.416;2024-03-08T15:31:14;9.60;99.90
38359;DHT22;42072;48.044;14.416;2024-03-08T15:33:41;9.60;99.90
38359;DHT22;42072;48.044;14.416;2024-03-08T15:36:12;9.60;99.90
38359;DHT22;42072;48.044;14.416;2024-03-08T15:38:42;9.60;99.90
38359;DHT22;42072;48.044;14.416;2024-03-08T15:41:18;9.50;99.90
38359;DHT22;42072;48.044;14.416;2024-03-08T15:43:48;9.50;99.90
38359;DHT22;42072;48.044;14.416;2024-03-08T15:46:17;9.50;99.90
38359;DHT22;42072;48.044;14.416;2024-03-08T15:48:45;9.50;99.90
38359;DHT22;42072;48.044;14.416;2024-03-08T15:51:13;9.50;99.90
38359;DHT22;42072;48.044;14.416;2024-03-08T15:53:41;9.50;99.90
38359;DHT22;42072;48.044;14.416;2024-03-08T15:56:08;9.40;99.90
38359;DHT22;42072;48.044;14.416;2024-03-08T15:58:36;9.40;99.90
38359;DHT22;42072;48.044;14.416;2024-03-08T16:01:04;9.30;99.90
38359;DHT22;42072;48.044;14.416;2024-03-08T16:03:34;9.30;99.90
38359;DHT22;42072;48.044;14.416;2024-03-08T16:06:01;9.30;99.90
38359;DHT22;42072;48.044;14.416;2024-03-08T16:08:31;9.30;99.90
38359;DHT22;42072;48.044;14.416;2024-03-08T16:11:00;9.30;99.90